sensor_id;sensor_type;location;lat;lon;timestamp;temperature;humidity
35690;DHT22;26977;44.830;-0.674;2022-08-19T00:00:24;18.20;99.90
35690;DHT22;26977;44.830;-0.674;2022-08-19T00:02:50;18.20;99.90
35690;DHT22;26977;44.830;-0.674;2022-08-19T00:05:16;18.20;99.90
35690;DHT22;26977;44.830;-0.674;2022-08-19T00:07:43;18.20;99.90
35690;DHT22;26977;44.830;-0.674;2022-08-19T00:10:10;18.20;99.90
35690;DHT22;26977;44.830;-0.674;2022-08-19T00:12:36;18.20;99.90
35690;DHT22;26977;44.830;-0.674;2022-08-19T00:15:08;18.20;99.90
35690;DHT22;26977;44.830;-0.674;2022-08-19T00:17:37;18.20;99.90
35690;DHT22;26977;44.830;-0.674;2022-08-19T00:20:03;18.20;99.90
35690;DHT22;26977;44.830;-0.674;2022-08-19T00:22:29;18.20;99.90
35690;DHT22;26977;44.830;-0.674;2022-08-19T00:24:55;18.20;99.90
35690;DHT22;26977;44.830;-0.674;2022-08-19T00:27:21;18.20;99.90
35690;DHT22;26977;44.830;-0.674;2022-08-19T00:29:46;18.20;99.90
35690;DHT22;26977;44.830;-0.674;2022-08-19T00:32:12;18.20;99.90
35690;DHT22;26977;44.830;-0.674;2022-08-19T00:34:38;18.10;99.90
35690;DHT22;26977;44.830;-0.674;2022-08-19T00:37:03;18.00;99.90
35690;DHT22;26977;44.830;-0.674;2022-08-19T00:39:29;17.90;99.90
35690;DHT22;26977;44.830;-0.674;2022-08-19T00:41:55;17.90;99.90
35690;DHT22;26977;44.830;-0.674;2022-08-19T00:44:26;17.90;99.90
35690;DHT22;26977;44.830;-0.674;2022-08-19T00:46:54;17.80;99.90
35690;DHT22;26977;44.830;-0.674;2022-08-19T00:49:54;17.70;99.90
35690;DHT22;26977;44.830;-0.674;2022-08-19T00:52:33;17.70;99.90
35690;DHT22;26977;44.830;-0.674;2022-08-19T00:55:00;17.60;99.90
35690;DHT22;26977;44.830;-0.674;2022-08-19T00:57:34;17.50;99.90
35690;DHT22;26977;44.830;-0.674;2022-08-19T01:00:01;17.40;99.90
35690;DHT22;26977;44.830;-0.674;2022-08-19T01:02:28;17.40;99.90
35690;DHT22;26977;44.830;-0.674;2022-08-19T01:04:54;17.30;99.90
35690;DHT22;26977;44.830;-0.674;2022-08-19T01:07:20;17.20;99.90
35690;DHT22;26977;44.830;-0.674;2022-08-19T01:09:47;17.10;99.90
35690;DHT22;26977;44.830;-0.674;2022-08-19T01:12:13;17.20;99.90
35690;DHT22;26977;44.830;-0.674;2022-08-19T01:14:39;17.20;99.90
35690;DHT22;26977;44.830;-0.674;2022-08-19T01:17:09;17.30;99.90
35690;DHT22;26977;44.830;-0.674;2022-08-19T01:19:40;17.20;99.90
35690;DHT22;26977;44.830;-0.674;2022-08-19T01:24:54;17.20;99.90
35690;DHT22;26977;44.830;-0.674;2022-08-19T01:27:19;17.10;99.90
35690;DHT22;26977;44.830;-0.674;2022-08-19T01:29:46;17.10;99.90
35690;DHT22;26977;44.830;-0.674;2022-08-19T01:32:14;17.00;99.90
35690;DHT22;26977;44.830;-0.674;2022-08-19T01:34:41;17.00;99.90
35690;DHT22;26977;44.830;-0.674;2022-08-19T01:37:11;17.00;99.90
35690;DHT22;26977;44.830;-0.674;2022-08-19T01:39:39;17.00;99.90
35690;DHT22;26977;44.830;-0.674;2022-08-19T01:42:06;17.00;99.90
35690;DHT22;26977;44.830;-0.674;2022-08-19T01:44:32;16.90;99.90
35690;DHT22;26977;44.830;-0.674;2022-08-19T01:46:58;16.90;99.90
35690;DHT22;26977;44.830;-0.674;2022-08-19T01:49:25;16.90;99.90
35690;DHT22;26977;44.830;-0.674;2022-08-19T01:51:52;16.90;99.90
35690;DHT22;26977;44.830;-0.674;2022-08-19T01:54:21;16.80;99.90
35690;DHT22;26977;44.830;-0.674;2022-08-19T01:56:47;16.90;99.90
35690;DHT22;26977;44.830;-0.674;2022-08-19T01:59:17;16.80;99.90
35690;DHT22;26977;44.830;-0.674;2022-08-19T02:01:44;16.80;99.90
35690;DHT22;26977;44.830;-0.674;2022-08-19T02:04:10;16.70;99.90
35690;DHT22;26977;44.830;-0.674;2022-08-19T02:06:36;16.60;99.90
35690;DHT22;26977;44.830;-0.674;2022-08-19T02:09:03;16.50;99.90
35690;DHT22;26977;44.830;-0.674;2022-08-19T02:11:33;16.40;99.90
35690;DHT22;26977;44.830;-0.674;2022-08-19T02:14:01;16.40;99.90
35690;DHT22;26977;44.830;-0.674;2022-08-19T02:16:28;16.60;99.90
35690;DHT22;26977;44.830;-0.674;2022-08-19T02:18:54;16.60;99.90
35690;DHT22;26977;44.830;-0.674;2022-08-19T02:21:21;16.70;99.90
35690;DHT22;26977;44.830;-0.674;2022-08-19T02:23:48;16.70;99.90
35690;DHT22;26977;44.830;-0.674;2022-08-19T02:26:14;16.70;99.90
35690;DHT22;26977;44.830;-0.674;2022-08-19T02:28:41;16.80;99.90
35690;DHT22;26977;44.830;-0.674;2022-08-19T02:31:16;16.80;99.90
35690;DHT22;26977;44.830;-0.674;2022-08-19T02:33:43;16.80;99.90
35690;DHT22;26977;44.830;-0.674;2022-08-19T02:36:10;16.80;99.90
35690;DHT22;26977;44.830;-0.674;2022-08-19T02:38:36;16.80;99.90
35690;DHT22;26977;44.830;-0.674;2022-08-19T02:41:14;16.80;99.90
35690;DHT22;26977;44.830;-0.674;2022-08-19T02:43:40;16.80;99.90
35690;DHT22;26977;44.830;-0.674;2022-08-19T02:46:23;16.70;99.90
35690;DHT22;26977;44.830;-0.674;2022-08-19T02:48:53;16.60;99.90
35690;DHT22;26977;44.830;-0.674;2022-08-19T02:51:25;16.60;99.90
35690;DHT22;26977;44.830;-0.674;2022-08-19T02:53:52;16.60;99.90
35690;DHT22;26977;44.830;-0.674;2022-08-19T02:56:19;16.50;99.90
35690;DHT22;26977;44.830;-0.674;2022-08-19T02:58:45;16.50;99.90
35690;DHT22;26977;44.830;-0.674;2022-08-19T03:01:20;16.50;99.90
35690;DHT22;26977;44.830;-0.674;2022-08-19T03:03:46;16.50;99.90
35690;DHT22;26977;44.830;-0.674;2022-08-19T03:06:14;16.50;99.90
35690;DHT22;26977;44.830;-0.674;2022-08-19T03:08:42;16.50;99.90
35690;DHT22;26977;44.830;-0.674;2022-08-19T03:11:21;16.50;99.90
35690;DHT22;26977;44.830;-0.674;2022-08-19T03:13:48;16.50;99.90
35690;DHT22;26977;44.830;-0.674;2022-08-19T03:16:20;16.50;99.90
35690;DHT22;26977;44.830;-0.674;2022-08-19T03:18:46;16.40;99.90
35690;DHT22;26977;44.830;-0.674;2022-08-19T03:21:21;16.40;99.90
35690;DHT22;26977;44.830;-0.674;2022-08-19T03:23:49;16.40;99.90
35690;DHT22;26977;44.830;-0.674;2022-08-19T03:26:16;16.40;99.90
35690;DHT22;26977;44.830;-0.674;2022-08-19T03:28:43;16.40;99.90
35690;DHT22;26977;44.830;-0.674;2022-08-19T03:31:13;16.40;99.90
35690;DHT22;26977;44.830;-0.674;2022-08-19T03:33:40;16.40;99.90
35690;DHT22;26977;44.830;-0.674;2022-08-19T03:36:09;16.50;99.90
35690;DHT22;26977;44.830;-0.674;2022-08-19T03:38:42;16.50;99.90
35690;DHT22;26977;44.830;-0.674;2022-08-19T03:41:13;16.60;99.90
35690;DHT22;26977;44.830;-0.674;2022-08-19T03:43:40;16.60;99.90
35690;DHT22;26977;44.830;-0.674;2022-08-19T03:46:09;16.60;99.90
35690;DHT22;26977;44.830;-0.674;2022-08-19T03:48:35;16.60;99.90
35690;DHT22;26977;44.830;-0.674;2022-08-19T03:51:02;16.70;99.90
35690;DHT22;26977;44.830;-0.674;2022-08-19T03:53:29;16.60;99.90
35690;DHT22;26977;44.830;-0.674;2022-08-19T03:55:56;16.70;99.90
35690;DHT22;26977;44.830;-0.674;2022-08-19T03:58:25;16.60;99.90
35690;DHT22;26977;44.830;-0.674;2022-08-19T04:00:51;16.70;99.90
35690;DHT22;26977;44.830;-0.674;2022-08-19T04:03:17;16.70;99.90
35690;DHT22;26977;44.830;-0.674;2022-08-19T04:05:44;16.70;99.90
35690;DHT22;26977;44.830;-0.674;2022-08-19T04:08:10;16.70;99.90
35690;DHT22;26977;44.830;-0.674;2022-08-19T04:10:37;16.70;99.90
35690;DHT22;26977;44.830;-0.674;2022-08-19T04:13:04;16.60;99.90
35690;DHT22;26977;44.830;-0.674;2022-08-19T04:15:31;16.60;99.90
35690;DHT22;26977;44.830;-0.674;2022-08-19T04:18:01;16.60;99.90
35690;DHT22;26977;44.830;-0.674;2022-08-19T04:20:27;16.50;99.90
35690;DHT22;26977;44.830;-0.674;2022-08-19T04:22:52;16.50;99.90
35690;DHT22;26977;44.830;-0.674;2022-08-19T04:25:18;16.50;99.90
35690;DHT22;26977;44.830;-0.674;2022-08-19T04:27:44;16.50;99.90
35690;DHT22;26977;44.830;-0.674;2022-08-19T04:30:12;16.40;99.90
35690;DHT22;26977;44.830;-0.674;2022-08-19T04:32:38;16.40;99.90
35690;DHT22;26977;44.830;-0.674;2022-08-19T04:35:04;16.30;99.90
35690;DHT22;26977;44.830;-0.674;2022-08-19T04:37:30;16.30;99.90
35690;DHT22;26977;44.830;-0.674;2022-08-19T04:39:59;16.20;99.90
35690;DHT22;26977;44.830;-0.674;2022-08-19T04:42:43;16.10;99.90
35690;DHT22;26977;44.830;-0.674;2022-08-19T04:45:14;16.30;99.90
35690;DHT22;26977;44.830;-0.674;2022-08-19T04:47:42;16.20;99.90
35690;DHT22;26977;44.830;-0.674;2022-08-19T04:50:09;16.20;99.90
35690;DHT22;26977;44.830;-0.674;2022-08-19T04:52:37;16.10;99.90
35690;DHT22;26977;44.830;-0.674;2022-08-19T04:55:03;16.10;99.90
35690;DHT22;26977;44.830;-0.674;2022-08-19T04:57:31;16.20;99.90
35690;DHT22;26977;44.830;-0.674;2022-08-19T04:59:57;16.20;99.90
35690;DHT22;26977;44.830;-0.674;2022-08-19T05:02:22;16.20;99.90
35690;DHT22;26977;44.830;-0.674;2022-08-19T05:04:55;16.20;99.90
35690;DHT22;26977;44.830;-0.674;2022-08-19T05:07:21;16.20;99.90
35690;DHT22;26977;44.830;-0.674;2022-08-19T05:09:47;16.10;99.90
35690;DHT22;26977;44.830;-0.674;2022-08-19T05:12:12;16.10;99.90
35690;DHT22;26977;44.830;-0.674;2022-08-19T05:14:38;16.20;99.90
35690;DHT22;26977;44.830;-0.674;2022-08-19T05:17:03;16.10;99.90
35690;DHT22;26977;44.830;-0.674;2022-08-19T05:19:29;16.10;99.90
35690;DHT22;26977;44.830;-0.674;2022-08-19T05:22:33;16.10;99.90
35690;DHT22;26977;44.830;-0.674;2022-08-19T05:25:08;16.10;99.90
35690;DHT22;26977;44.830;-0.674;2022-08-19T05:27:34;16.10;99.90
35690;DHT22;26977;44.830;-0.674;2022-08-19T05:30:00;16.10;99.90
35690;DHT22;26977;44.830;-0.674;2022-08-19T05:32:27;16.10;99.90
35690;DHT22;26977;44.830;-0.674;2022-08-19T05:34:53;16.10;99.90
35690;DHT22;26977;44.830;-0.674;2022-08-19T05:37:19;16.10;99.90
35690;DHT22;26977;44.830;-0.674;2022-08-19T05:39:45;16.10;99.90
35690;DHT22;26977;44.830;-0.674;2022-08-19T05:42:11;16.20;99.90
35690;DHT22;26977;44.830;-0.674;2022-08-19T05:44:39;16.20;99.90
35690;DHT22;26977;44.830;-0.674;2022-08-19T05:47:09;16.20;99.90
35690;DHT22;26977;44.830;-0.674;2022-08-19T05:49:36;16.20;99.90
35690;DHT22;26977;44.830;-0.674;2022-08-19T05:52:08;16.30;99.90
35690;DHT22;26977;44.830;-0.674;2022-08-19T05:54:37;16.30;99.90
35690;DHT22;26977;44.830;-0.674;2022-08-19T05:57:05;16.30;99.90
35690;DHT22;26977;44.830;-0.674;2022-08-19T05:59:31;16.30;99.90
35690;DHT22;26977;44.830;-0.674;2022-08-19T06:01:58;16.40;99.90
35690;DHT22;26977;44.830;-0.674;2022-08-19T06:04:25;16.50;99.90
35690;DHT22;26977;44.830;-0.674;2022-08-19T06:06:52;16.60;99.90
35690;DHT22;26977;44.830;-0.674;2022-08-19T06:09:20;16.70;99.90
35690;DHT22;26977;44.830;-0.674;2022-08-19T06:11:55;16.80;99.90
35690;DHT22;26977;44.830;-0.674;2022-08-19T06:14:27;16.90;99.90
35690;DHT22;26977;44.830;-0.674;2022-08-19T06:16:52;17.00;99.90
35690;DHT22;26977;44.830;-0.674;2022-08-19T06:19:20;17.10;99.90
35690;DHT22;26977;44.830;-0.674;2022-08-19T06:21:47;17.20;99.90
35690;DHT22;26977;44.830;-0.674;2022-08-19T06:24:17;17.30;99.90
35690;DHT22;26977;44.830;-0.674;2022-08-19T06:26:45;17.40;99.90
35690;DHT22;26977;44.830;-0.674;2022-08-19T06:29:13;17.50;99.90
35690;DHT22;26977;44.830;-0.674;2022-08-19T06:31:43;17.60;99.90
35690;DHT22;26977;44.830;-0.674;2022-08-19T06:34:09;17.60;99.90
35690;DHT22;26977;44.830;-0.674;2022-08-19T06:36:40;17.60;99.90
35690;DHT22;26977;44.830;-0.674;2022-08-19T06:39:22;17.70;99.90
35690;DHT22;26977;44.830;-0.674;2022-08-19T06:41:51;17.90;99.90
35690;DHT22;26977;44.830;-0.674;2022-08-19T06:44:22;18.10;99.90
35690;DHT22;26977;44.830;-0.674;2022-08-19T06:46:48;18.10;99.90
35690;DHT22;26977;44.830;-0.674;2022-08-19T06:49:15;18.30;99.90
35690;DHT22;26977;44.830;-0.674;2022-08-19T06:51:43;18.40;99.90
35690;DHT22;26977;44.830;-0.674;2022-08-19T06:54:10;18.50;99.90
35690;DHT22;26977;44.830;-0.674;2022-08-19T06:56:37;18.70;99.90
35690;DHT22;26977;44.830;-0.674;2022-08-19T06:59:11;18.70;99.90
35690;DHT22;26977;44.830;-0.674;2022-08-19T07:01:41;18.70;99.90
35690;DHT22;26977;44.830;-0.674;2022-08-19T07:04:08;18.90;99.90
35690;DHT22;26977;44.830;-0.674;2022-08-19T07:06:35;19.20;99.90
35690;DHT22;26977;44.830;-0.674;2022-08-19T07:09:01;19.30;99.90
35690;DHT22;26977;44.830;-0.674;2022-08-19T07:11:27;19.30;99.90
35690;DHT22;26977;44.830;-0.674;2022-08-19T07:13:53;19.40;99.90
35690;DHT22;26977;44.830;-0.674;2022-08-19T07:16:20;19.60;99.90
35690;DHT22;26977;44.830;-0.674;2022-08-19T07:18:48;19.60;99.90
35690;DHT22;26977;44.830;-0.674;2022-08-19T07:21:17;19.60;99.90
35690;DHT22;26977;44.830;-0.674;2022-08-19T07:23:44;19.80;99.90
35690;DHT22;26977;44.830;-0.674;2022-08-19T07:28:48;20.20;99.90
35690;DHT22;26977;44.830;-0.674;2022-08-19T07:31:16;20.30;99.90
35690;DHT22;26977;44.830;-0.674;2022-08-19T07:33:44;20.50;99.90
35690;DHT22;26977;44.830;-0.674;2022-08-19T07:36:12;20.60;99.90
35690;DHT22;26977;44.830;-0.674;2022-08-19T07:38:43;20.50;99.90
35690;DHT22;26977;44.830;-0.674;2022-08-19T07:41:11;20.60;99.90
35690;DHT22;26977;44.830;-0.674;2022-08-19T07:43:38;20.90;99.90
35690;DHT22;26977;44.830;-0.674;2022-08-19T07:46:03;20.90;99.90
35690;DHT22;26977;44.830;-0.674;2022-08-19T07:48:29;20.80;99.90
35690;DHT22;26977;44.830;-0.674;2022-08-19T07:50:58;20.70;99.90
35690;DHT22;26977;44.830;-0.674;2022-08-19T07:53:27;20.80;99.90
35690;DHT22;26977;44.830;-0.674;2022-08-19T07:55:54;21.00;99.90
35690;DHT22;26977;44.830;-0.674;2022-08-19T07:58:22;21.10;99.90
35690;DHT22;26977;44.830;-0.674;2022-08-19T08:00:50;21.00;99.90
35690;DHT22;26977;44.830;-0.674;2022-08-19T08:03:18;21.20;99.90
35690;DHT22;26977;44.830;-0.674;2022-08-19T08:05:45;21.50;99.90
35690;DHT22;26977;44.830;-0.674;2022-08-19T08:08:29;21.70;99.90
35690;DHT22;26977;44.830;-0.674;2022-08-19T08:11:16;21.30;99.90
35690;DHT22;26977;44.830;-0.674;2022-08-19T08:13:43;21.30;99.90
35690;DHT22;26977;44.830;-0.674;2022-08-19T08:16:09;21.40;99.90
35690;DHT22;26977;44.830;-0.674;2022-08-19T08:18:34;21.30;99.90
35690;DHT22;26977;44.830;-0.674;2022-08-19T08:21:06;21.30;99.90
35690;DHT22;26977;44.830;-0.674;2022-08-19T08:23:32;21.30;99.90
35690;DHT22;26977;44.830;-0.674;2022-08-19T08:25:58;21.50;99.90
35690;DHT22;26977;44.830;-0.674;2022-08-19T08:28:26;21.70;99.90
35690;DHT22;26977;44.830;-0.674;2022-08-19T08:30:55;21.70;99.90
35690;DHT22;26977;44.830;-0.674;2022-08-19T08:33:23;21.70;99.90
35690;DHT22;26977;44.830;-0.674;2022-08-19T08:35:49;22.30;99.90
35690;DHT22;26977;44.830;-0.674;2022-08-19T08:38:15;22.10;99.90
35690;DHT22;26977;44.830;-0.674;2022-08-19T08:40:47;22.10;99.90
35690;DHT22;26977;44.830;-0.674;2022-08-19T08:43:27;22.40;99.90
35690;DHT22;26977;44.830;-0.674;2022-08-19T08:48:44;22.50;99.90
35690;DHT22;26977;44.830;-0.674;2022-08-19T08:51:18;22.80;99.90
35690;DHT22;26977;44.830;-0.674;2022-08-19T08:53:46;23.10;99.70
35690;DHT22;26977;44.830;-0.674;2022-08-19T08:56:15;22.90;99.70
35690;DHT22;26977;44.830;-0.674;2022-08-19T09:01:12;23.10;99.50
35690;DHT22;26977;44.830;-0.674;2022-08-19T09:03:40;23.60;98.50
35690;DHT22;26977;44.830;-0.674;2022-08-19T09:06:12;23.60;98.00
35690;DHT22;26977;44.830;-0.674;2022-08-19T09:16:50;23.40;97.60
35690;DHT22;26977;44.830;-0.674;2022-08-19T09:19:16;23.30;98.20
35690;DHT22;26977;44.830;-0.674;2022-08-19T09:21:42;23.40;97.80
35690;DHT22;26977;44.830;-0.674;2022-08-19T09:24:08;22.90;97.90
35690;DHT22;26977;44.830;-0.674;2022-08-19T09:26:34;22.90;98.30
35690;DHT22;26977;44.830;-0.674;2022-08-19T09:29:01;23.50;98.50
35690;DHT22;26977;44.830;-0.674;2022-08-19T09:31:30;23.90;96.80
35690;DHT22;26977;44.830;-0.674;2022-08-19T09:33:59;23.70;96.40
35690;DHT22;26977;44.830;-0.674;2022-08-19T09:36:27;24.10;97.00
35690;DHT22;26977;44.830;-0.674;2022-08-19T09:38:59;24.20;95.60
35690;DHT22;26977;44.830;-0.674;2022-08-19T09:41:26;23.90;95.80
35690;DHT22;26977;44.830;-0.674;2022-08-19T09:43:55;23.90;96.20
35690;DHT22;26977;44.830;-0.674;2022-08-19T09:46:23;24.10;96.40
35690;DHT22;26977;44.830;-0.674;2022-08-19T09:48:49;24.30;96.10
35690;DHT22;26977;44.830;-0.674;2022-08-19T09:51:24;24.20;95.70
35690;DHT22;26977;44.830;-0.674;2022-08-19T09:53:52;23.90;95.90
35690;DHT22;26977;44.830;-0.674;2022-08-19T09:56:20;23.90;96.00
35690;DHT22;26977;44.830;-0.674;2022-08-19T09:58:47;23.70;96.20
35690;DHT22;26977;44.830;-0.674;2022-08-19T10:01:24;23.80;96.10
35690;DHT22;26977;44.830;-0.674;2022-08-19T10:03:51;23.60;96.20
35690;DHT22;26977;44.830;-0.674;2022-08-19T10:06:20;23.90;96.10
35690;DHT22;26977;44.830;-0.674;2022-08-19T10:08:46;24.30;95.70
35690;DHT22;26977;44.830;-0.674;2022-08-19T10:11:12;24.40;95.70
35690;DHT22;26977;44.830;-0.674;2022-08-19T10:13:42;24.80;94.40
35690;DHT22;26977;44.830;-0.674;2022-08-19T10:16:14;24.40;94.90
35690;DHT22;26977;44.830;-0.674;2022-08-19T10:18:40;23.50;96.60
35690;DHT22;26977;44.830;-0.674;2022-08-19T10:24:33;23.20;97.60
35690;DHT22;26977;44.830;-0.674;2022-08-19T10:27:00;23.90;96.80
35690;DHT22;26977;44.830;-0.674;2022-08-19T10:29:54;24.60;95.60
35690;DHT22;26977;44.830;-0.674;2022-08-19T10:32:20;24.80;94.70
35690;DHT22;26977;44.830;-0.674;2022-08-19T10:34:47;25.30;94.20
35690;DHT22;26977;44.830;-0.674;2022-08-19T10:37:15;25.20;93.70
35690;DHT22;26977;44.830;-0.674;2022-08-19T10:39:40;25.00;93.70
35690;DHT22;26977;44.830;-0.674;2022-08-19T10:42:07;25.10;93.70
35690;DHT22;26977;44.830;-0.674;2022-08-19T10:44:35;25.40;93.20
35690;DHT22;26977;44.830;-0.674;2022-08-19T10:47:02;25.70;92.90
35690;DHT22;26977;44.830;-0.674;2022-08-19T10:49:28;25.20;91.90
35690;DHT22;26977;44.830;-0.674;2022-08-19T10:51:55;24.60;92.80
35690;DHT22;26977;44.830;-0.674;2022-08-19T10:54:39;24.60;93.30
35690;DHT22;26977;44.830;-0.674;2022-08-19T10:57:23;24.50;93.90
35690;DHT22;26977;44.830;-0.674;2022-08-19T10:59:57;24.50;94.30
35690;DHT22;26977;44.830;-0.674;2022-08-19T11:02:23;24.60;93.90
35690;DHT22;26977;44.830;-0.674;2022-08-19T11:04:49;24.50;94.20
35690;DHT22;26977;44.830;-0.674;2022-08-19T11:07:17;24.50;94.50
35690;DHT22;26977;44.830;-0.674;2022-08-19T11:09:43;24.70;94.30
35690;DHT22;26977;44.830;-0.674;2022-08-19T11:12:09;24.70;94.20
35690;DHT22;26977;44.830;-0.674;2022-08-19T11:14:35;24.50;94.20
35690;DHT22;26977;44.830;-0.674;2022-08-19T11:17:03;24.20;94.70
35690;DHT22;26977;44.830;-0.674;2022-08-19T11:19:29;24.30;95.10
35690;DHT22;26977;44.830;-0.674;2022-08-19T11:21:55;24.50;94.60
35690;DHT22;26977;44.830;-0.674;2022-08-19T11:24:23;24.90;94.20
35690;DHT22;26977;44.830;-0.674;2022-08-19T11:26:51;24.90;93.90
35690;DHT22;26977;44.830;-0.674;2022-08-19T11:29:19;24.80;93.70
35690;DHT22;26977;44.830;-0.674;2022-08-19T11:31:47;25.30;93.20
35690;DHT22;26977;44.830;-0.674;2022-08-19T11:34:17;25.70;92.30
35690;DHT22;26977;44.830;-0.674;2022-08-19T11:36:45;25.60;92.60
35690;DHT22;26977;44.830;-0.674;2022-08-19T11:39:14;25.60;92.50
35690;DHT22;26977;44.830;-0.674;2022-08-19T11:41:40;25.70;92.10
35690;DHT22;26977;44.830;-0.674;2022-08-19T11:44:06;25.90;92.10
35690;DHT22;26977;44.830;-0.674;2022-08-19T11:46:37;26.10;91.90
35690;DHT22;26977;44.830;-0.674;2022-08-19T11:49:04;26.60;91.60
35690;DHT22;26977;44.830;-0.674;2022-08-19T11:51:30;26.60;91.60
35690;DHT22;26977;44.830;-0.674;2022-08-19T11:53:58;26.20;92.00
35690;DHT22;26977;44.830;-0.674;2022-08-19T11:56:24;26.40;91.90
35690;DHT22;26977;44.830;-0.674;2022-08-19T11:58:51;26.20;91.70
35690;DHT22;26977;44.830;-0.674;2022-08-19T12:01:19;26.10;92.30
35690;DHT22;26977;44.830;-0.674;2022-08-19T12:03:47;25.90;91.80
35690;DHT22;26977;44.830;-0.674;2022-08-19T12:06:22;25.70;92.10
35690;DHT22;26977;44.830;-0.674;2022-08-19T12:08:55;25.60;92.70
35690;DHT22;26977;44.830;-0.674;2022-08-19T12:11:22;25.70;92.70
35690;DHT22;26977;44.830;-0.674;2022-08-19T12:13:48;26.00;91.90
35690;DHT22;26977;44.830;-0.674;2022-08-19T12:16:19;25.70;92.10
35690;DHT22;26977;44.830;-0.674;2022-08-19T12:18:46;25.60;92.20
35690;DHT22;26977;44.830;-0.674;2022-08-19T12:21:13;25.70;92.30
35690;DHT22;26977;44.830;-0.674;2022-08-19T12:23:40;25.80;92.40
35690;DHT22;26977;44.830;-0.674;2022-08-19T12:26:06;25.60;92.60
35690;DHT22;26977;44.830;-0.674;2022-08-19T12:28:32;25.10;93.40
35690;DHT22;26977;44.830;-0.674;2022-08-19T12:30:58;25.00;93.90
35690;DHT22;26977;44.830;-0.674;2022-08-19T12:33:24;24.80;93.80
35690;DHT22;26977;44.830;-0.674;2022-08-19T12:35:53;24.70;94.20
35690;DHT22;26977;44.830;-0.674;2022-08-19T12:38:19;24.40;95.40
35690;DHT22;26977;44.830;-0.674;2022-08-19T12:40:47;23.50;99.00
35690;DHT22;26977;44.830;-0.674;2022-08-19T12:43:14;22.50;99.90
35690;DHT22;26977;44.830;-0.674;2022-08-19T12:45:41;22.30;99.90
35690;DHT22;26977;44.830;-0.674;2022-08-19T12:48:08;22.40;99.90
35690;DHT22;26977;44.830;-0.674;2022-08-19T12:50:34;22.80;99.90
35690;DHT22;26977;44.830;-0.674;2022-08-19T12:52:59;23.30;99.90
35690;DHT22;26977;44.830;-0.674;2022-08-19T12:55:25;24.00;99.90
35690;DHT22;26977;44.830;-0.674;2022-08-19T12:57:53;24.20;99.90
35690;DHT22;26977;44.830;-0.674;2022-08-19T13:00:20;24.50;99.80
35690;DHT22;26977;44.830;-0.674;2022-08-19T13:02:48;24.20;98.80
35690;DHT22;26977;44.830;-0.674;2022-08-19T13:05:17;24.10;99.00
35690;DHT22;26977;44.830;-0.674;2022-08-19T13:07:45;24.00;98.90
35690;DHT22;26977;44.830;-0.674;2022-08-19T13:10:13;24.10;98.30
35690;DHT22;26977;44.830;-0.674;2022-08-19T13:12:41;24.10;98.20
35690;DHT22;26977;44.830;-0.674;2022-08-19T13:15:07;24.60;97.50
35690;DHT22;26977;44.830;-0.674;2022-08-19T13:17:34;25.80;96.60
35690;DHT22;26977;44.830;-0.674;2022-08-19T13:20:00;27.30;95.10
35690;DHT22;26977;44.830;-0.674;2022-08-19T13:22:25;26.90;92.70
35690;DHT22;26977;44.830;-0.674;2022-08-19T13:24:52;26.60;93.30
35690;DHT22;26977;44.830;-0.674;2022-08-19T13:27:18;26.30;93.10
35690;DHT22;26977;44.830;-0.674;2022-08-19T13:29:44;25.90;93.70
35690;DHT22;26977;44.830;-0.674;2022-08-19T13:32:29;26.00;93.50
35690;DHT22;26977;44.830;-0.674;2022-08-19T13:35:14;26.30;93.10
35690;DHT22;26977;44.830;-0.674;2022-08-19T13:37:40;27.00;93.00
35690;DHT22;26977;44.830;-0.674;2022-08-19T13:40:09;28.80;90.10
35690;DHT22;26977;44.830;-0.674;2022-08-19T13:42:39;28.50;89.10
35690;DHT22;26977;44.830;-0.674;2022-08-19T13:45:05;27.30;90.60
35690;DHT22;26977;44.830;-0.674;2022-08-19T13:47:32;26.90;91.40
35690;DHT22;26977;44.830;-0.674;2022-08-19T13:50:03;26.50;91.60
35690;DHT22;26977;44.830;-0.674;2022-08-19T13:52:28;26.00;92.60
35690;DHT22;26977;44.830;-0.674;2022-08-19T13:54:54;25.60;93.80
35690;DHT22;26977;44.830;-0.674;2022-08-19T13:57:20;25.40;95.50
35690;DHT22;26977;44.830;-0.674;2022-08-19T13:59:46;24.80;96.40
35690;DHT22;26977;44.830;-0.674;2022-08-19T14:02:11;24.70;96.90
35690;DHT22;26977;44.830;-0.674;2022-08-19T14:04:37;25.10;96.00
35690;DHT22;26977;44.830;-0.674;2022-08-19T14:07:03;25.20;95.10
35690;DHT22;26977;44.830;-0.674;2022-08-19T14:09:30;25.30;95.30
35690;DHT22;26977;44.830;-0.674;2022-08-19T14:11:55;25.40;94.80
35690;DHT22;26977;44.830;-0.674;2022-08-19T14:14:21;25.70;94.60
35690;DHT22;26977;44.830;-0.674;2022-08-19T14:16:47;27.20;93.50
35690;DHT22;26977;44.830;-0.674;2022-08-19T14:19:13;27.70;91.30
35690;DHT22;26977;44.830;-0.674;2022-08-19T14:21:39;27.50;91.40
35690;DHT22;26977;44.830;-0.674;2022-08-19T14:24:06;26.20;93.10
35690;DHT22;26977;44.830;-0.674;2022-08-19T14:26:32;26.00;93.70
35690;DHT22;26977;44.830;-0.674;2022-08-19T14:28:58;26.00;93.80
35690;DHT22;26977;44.830;-0.674;2022-08-19T14:31:24;25.70;93.90
35690;DHT22;26977;44.830;-0.674;2022-08-19T14:33:51;25.60;93.50
35690;DHT22;26977;44.830;-0.674;2022-08-19T14:36:18;25.70;94.10
35690;DHT22;26977;44.830;-0.674;2022-08-19T14:38:43;26.10;93.10
35690;DHT22;26977;44.830;-0.674;2022-08-19T14:41:15;26.20;93.00
35690;DHT22;26977;44.830;-0.674;2022-08-19T14:43:46;26.20;93.00
35690;DHT22;26977;44.830;-0.674;2022-08-19T14:46:17;26.20;93.00
35690;DHT22;26977;44.830;-0.674;2022-08-19T14:48:45;25.90;93.20
35690;DHT22;26977;44.830;-0.674;2022-08-19T14:51:10;25.80;93.30
35690;DHT22;26977;44.830;-0.674;2022-08-19T14:53:36;26.20;92.80
35690;DHT22;26977;44.830;-0.674;2022-08-19T14:56:11;27.20;92.10
35690;DHT22;26977;44.830;-0.674;2022-08-19T14:58:38;28.70;89.40
35690;DHT22;26977;44.830;-0.674;2022-08-19T15:01:05;29.50;87.20
35690;DHT22;26977;44.830;-0.674;2022-08-19T15:03:31;29.30;86.10
35690;DHT22;26977;44.830;-0.674;2022-08-19T15:05:58;28.00;89.00
35690;DHT22;26977;44.830;-0.674;2022-08-19T15:08:27;29.20;87.40
35690;DHT22;26977;44.830;-0.674;2022-08-19T15:10:54;30.90;82.70
35690;DHT22;26977;44.830;-0.674;2022-08-19T15:13:20;30.00;82.40
35690;DHT22;26977;44.830;-0.674;2022-08-19T15:15:47;29.60;85.50
35690;DHT22;26977;44.830;-0.674;2022-08-19T15:18:13;29.60;84.30
35690;DHT22;26977;44.830;-0.674;2022-08-19T15:20:39;28.60;85.20
35690;DHT22;26977;44.830;-0.674;2022-08-19T15:23:05;28.50;86.90
35690;DHT22;26977;44.830;-0.674;2022-08-19T15:25:31;29.70;84.10
35690;DHT22;26977;44.830;-0.674;2022-08-19T15:27:57;30.60;82.30
35690;DHT22;26977;44.830;-0.674;2022-08-19T15:30:26;30.00;83.00
35690;DHT22;26977;44.830;-0.674;2022-08-19T15:32:53;30.70;81.90
35690;DHT22;26977;44.830;-0.674;2022-08-19T15:35:21;29.70;82.30
35690;DHT22;26977;44.830;-0.674;2022-08-19T15:37:51;30.10;83.20
35690;DHT22;26977;44.830;-0.674;2022-08-19T15:40:18;30.50;81.20
35690;DHT22;26977;44.830;-0.674;2022-08-19T15:42:44;30.80;79.70